This is the latest recevied weather packets stored in our database for station/object IZ1HMT-3. If no packets are shown the sender has not sent any weather packets the latest 10 day(s).
| Time | Temp. | Humidity | Pressure | Rain* | Wind** | Luminosity | Snow |
|---|---|---|---|---|---|---|---|
| 1787611020 | 22.22° C | 75% | 1014.4 hPa | - | - | - | - |
| 1787610416 | 22.22° C | 74% | 1014 hPa | - | - | - | - |
| 1787609813 | 23.33° C | 72% | 1013.1 hPa | - | - | - | - |
| 1787609208 | 23.33° C | 72% | 1015 hPa | - | - | - | - |
| 1787608603 | 23.33° C | 71% | 1014.4 hPa | - | - | - | - |
| 1787606789 | 24.44° C | 62% | 1012.4 hPa | - | - | - | - |
| 1787606185 | 25° C | 62% | 1011.8 hPa | - | - | - | - |
| 1787605580 | 25° C | 60% | 1012.2 hPa | - | - | - | - |
| 1787604975 | 25° C | 61% | 1012.2 hPa | - | - | - | - |
| 1787604371 | 25.56° C | 58% | 1011.1 hPa | - | - | - | - |
| 1787603766 | 26.11° C | 57% | 1011.7 hPa | - | - | - | - |
| 1787603162 | 26.67° C | 56% | 1012.1 hPa | - | - | - | - |
| 1787602557 | 26.67° C | 58% | 1012.8 hPa | - | - | - | - |
| 1787601952 | 26.11° C | 60% | 1012.3 hPa | - | - | - | - |
| 1787601348 | 26.11° C | 60% | 1012.4 hPa | - | - | - | - |
| 1787600743 | 26.67° C | 58% | 1012.4 hPa | - | - | - | - |
| 1787600139 | 26.67° C | 57% | 1013.1 hPa | - | - | - | - |
| 1787599534 | 27.22° C | 55% | 1012.9 hPa | - | - | - | - |
| 1787597720 | 28.33° C | 53% | 1012.9 hPa | - | - | - | - |
| 1787597116 | 28.33° C | 53% | 1012.5 hPa | - | - | - | - |
| 1787596512 | 28.89° C | 52% | 1013.1 hPa | - | - | - | - |
| 1787595908 | 28.89° C | 52% | 1013.4 hPa | - | - | - | - |
| 1787595304 | 29.44° C | 51% | 1013.4 hPa | - | - | - | - |
| 1787594699 | 29.44° C | 51% | 1013.6 hPa | - | - | - | - |
| 1787594095 | 30° C | 49% | 1013.4 hPa | - | - | - | - |
* Rain since midnight (hover to see other rain measurements)
** Current wind speed in m/s (hover to see current wind gust speed)